Time;durP1;ratioP1;P1;durP2;ratioP2;P2;SDS_P1;SDS_P2;PMS_P1;PMS_P2;Temp;Humidity;BMP_temperature;BMP_pressure;BME280_temperature;BME280_humidity;BME280_pressure;Samples;Min_cycle;Max_cycle;Signal;HPM_P1;HPM_P2
2022/09/17 00:01:32;;;;;;;0.63;0.27;;;;;;;;;;21156693;28;20207;-71
2022/09/17 00:11:36;;;;;;;0.60;0.30;;;;;;;;;;21152931;28;20226;-72
2022/09/17 00:21:38;;;;;;;0.30;0.20;;;;;;;;;;21100140;28;20212;-72
2022/09/17 00:31:40;;;;;;;1.93;0.50;;;;;;;;;;21084700;28;20258;-72
2022/09/17 00:41:42;;;;;;;0.53;0.30;;;;;;;;;;21129410;28;20220;-72
2022/09/17 00:51:50;;;;;;;0.20;0.20;;;;;;;;;;21149314;28;20272;-72
2022/09/17 01:01:51;;;;;;;0.33;0.33;;;;;;;;;;21126653;28;20236;-73
2022/09/17 01:12:02;;;;;;;0.50;0.30;;;;;;;;;;20998020;28;20585;-73
2022/09/17 01:22:07;;;;;;;0.30;0.30;;;;;;;;;;20996631;28;20221;-73
2022/09/17 01:32:15;;;;;;;0.73;0.40;;;;;;;;;;20995627;28;20290;-72
2022/09/17 01:42:32;;;;;;;0.73;0.33;;;14.00;99.90;;;;;;20993158;28;20221;-72
2022/09/17 01:52:37;;;;;;;0.40;0.40;;;14.00;99.90;;;;;;20993305;28;20242;-73
2022/09/17 02:02:58;;;;;;;0.97;0.40;;;;;;;;;;20960698;28;20578;-72
2022/09/17 02:13:01;;;;;;;1.00;0.50;;;;;;;;;;20994391;28;20671;-72
2022/09/17 02:23:06;;;;;;;0.40;0.37;;;;;;;;;;20992673;28;20209;-72
2022/09/17 02:33:12;;;;;;;0.60;0.40;;;13.70;99.90;;;;;;21120582;28;20295;-73
2022/09/17 02:43:21;;;;;;;0.30;0.30;;;13.70;99.90;;;;;;21105815;28;20692;-73
2022/09/17 02:54:04;;;;;;;0.57;0.30;;;13.60;99.90;;;;;;21001969;28;20221;-72
2022/09/17 03:04:11;;;;;;;0.87;0.30;;;13.40;99.90;;;;;;20989392;28;20209;-73
2022/09/17 03:14:13;;;;;;;1.67;0.40;;;;;;;;;;20988134;28;20494;-73
2022/09/17 03:24:15;;;;;;;1.77;0.60;;;;;;;;;;20988867;28;20235;-72
2022/09/17 03:34:17;;;;;;;0.43;0.30;;;;;;;;;;20968502;28;20213;-72
2022/09/17 03:44:20;;;;;;;0.90;0.40;;;;;;;;;;20985572;28;20625;-72
2022/09/17 03:54:22;;;;;;;0.30;0.30;;;;;;;;;;20984077;28;20255;-72
2022/09/17 04:04:24;;;;;;;1.50;0.50;;;13.10;99.90;;;;;;20966903;28;20751;-73
2022/09/17 04:14:26;;;;;;;0.57;0.40;;;;;;;;;;20984255;28;20262;-72
2022/09/17 04:24:28;;;;;;;0.50;0.40;;;;;;;;;;20968735;28;20247;-74
2022/09/17 04:34:30;;;;;;;3.30;0.83;;;;;;;;;;20989477;28;20213;-73
2022/09/17 04:44:32;;;;;;;0.37;0.33;;;;;;;;;;20987170;28;20239;-72
2022/09/17 04:54:34;;;;;;;2.93;0.50;;;;;;;;;;21011292;28;20217;-72
2022/09/17 05:04:35;;;;;;;0.37;0.37;;;;;;;;;;21061650;22;20267;-72
2022/09/17 05:14:37;;;;;;;2.00;0.50;;;;;;;;;;21035250;28;20229;-72
2022/09/17 05:24:39;;;;;;;2.10;0.67;;;;;;;;;;21033621;28;20277;-72
2022/09/17 05:34:42;;;;;;;1.47;0.57;;;;;;;;;;21037160;28;20641;-73
2022/09/17 05:44:43;;;;;;;2.10;0.57;;;;;;;;;;21030958;28;20605;-72
2022/09/17 05:54:46;;;;;;;0.80;0.57;;;;;;;;;;21040858;28;20232;-73
2022/09/17 06:04:47;;;;;;;1.93;0.50;;;;;;;;;;21046289;28;20246;-73
2022/09/17 06:14:49;;;;;;;1.33;0.60;;;;;;;;;;21045737;28;20635;-73
2022/09/17 06:24:51;;;;;;;2.83;0.40;;;;;;;;;;21013122;28;20239;-73
2022/09/17 06:34:54;;;;;;;2.73;0.70;;;;;;;;;;21018267;28;20224;-74
2022/09/17 06:44:57;;;;;;;0.93;0.40;;;;;;;;;;21038372;28;20592;-73
2022/09/17 06:54:59;;;;;;;2.30;0.70;;;;;;;;;;20999953;28;20224;-73
2022/09/17 07:05:01;;;;;;;2.07;0.60;;;;;;;;;;21013937;28;20256;-73
2022/09/17 07:15:03;;;;;;;1.13;0.43;;;;;;;;;;20946345;28;20224;-73
2022/09/17 07:25:07;;;;;;;1.00;0.40;;;;;;;;;;21035077;28;20246;-73
2022/09/17 07:35:11;;;;;;;2.73;0.50;;;;;;;;;;20985589;28;20688;-75
2022/09/17 07:45:15;;;;;;;2.00;0.50;;;;;;;;;;21022877;28;20220;-73
2022/09/17 07:55:17;;;;;;;0.63;0.40;;;;;;;;;;21014113;28;20232;-73
2022/09/17 08:05:24;;;;;;;0.40;0.30;;;;;;;;;;21022032;28;20254;-73
2022/09/17 08:15:27;;;;;;;2.57;0.63;;;;;;;;;;21032245;28;20232;-73
2022/09/17 08:25:29;;;;;;;2.43;0.70;;;;;;;;;;21016805;28;20247;-73
2022/09/17 08:35:31;;;;;;;1.80;0.60;;;;;;;;;;21010878;28;20721;-73
2022/09/17 08:45:33;;;;;;;1.33;0.70;;;;;;;;;;21016784;28;20282;-73
2022/09/17 08:55:53;;;;;;;1.37;0.40;;;;;;;;;;21019574;28;20778;-73
2022/09/17 09:05:55;;;;;;;0.60;0.30;;;;;;;;;;21030307;28;20224;-73
2022/09/17 09:15:57;;;;;;;0.97;0.50;;;;;;;;;;21039019;28;20281;-74
2022/09/17 09:26:19;;;;;;;1.53;0.40;;;;;;;;;;21030437;28;20635;-74
2022/09/17 09:36:21;;;;;;;2.10;0.77;;;;;;;;;;21029703;28;20232;-73
2022/09/17 09:46:26;;;;;;;1.43;0.53;;;;;;;;;;21044840;28;20204;-73
2022/09/17 09:56:35;;;;;;;1.40;0.40;;;;;;;;;;21044565;28;20309;-73
2022/09/17 10:06:37;;;;;;;2.07;0.70;;;;;;;;;;21041855;28;20240;-74
2022/09/17 10:16:39;;;;;;;1.57;0.60;;;;;;;;;;21042092;28;20645;-73
2022/09/17 10:26:41;;;;;;;0.83;0.40;;;;;;;;;;21026277;28;20238;-73
2022/09/17 10:36:45;;;;;;;1.87;0.53;;;15.60;99.90;;;;;;21024908;28;20515;-74
2022/09/17 10:46:47;;;;;;;1.67;0.80;;;;;;;;;;21040339;28;20225;-74
2022/09/17 10:56:52;;;;;;;0.70;0.40;;;;;;;;;;21021125;28;20855;-73
2022/09/17 11:07:06;;;;;;;1.43;0.40;;;;;;;;;;21151650;22;20621;-82
2022/09/17 11:17:08;;;;;;;0.20;0.20;;;;;;;;;;21359131;27;20328;-83
2022/09/17 11:27:25;;;;;;;0.70;0.50;;;;;;;;;;21285548;27;20753;-83
2022/09/17 11:37:34;;;;;;;0.47;0.30;;;16.00;99.90;;;;;;21269257;27;20210;-84
2022/09/17 11:47:38;;;;;;;0.60;0.30;;;;;;;;;;21276506;27;20271;-84
2022/09/17 11:57:41;;;;;;;1.10;0.47;;;15.40;99.90;;;;;;21330011;27;20215;-83
2022/09/17 12:07:47;;;;;;;0.50;0.30;;;;;;;;;;21292671;27;20222;-83
2022/09/17 12:17:56;;;;;;;2.43;0.40;;;;;;;;;;21292612;27;20202;-82
2022/09/17 12:28:10;;;;;;;0.50;0.30;;;;;;;;;;21276083;27;20275;-83
2022/09/17 12:38:42;;;;;;;0.50;0.30;;;17.40;99.90;;;;;;21307163;27;20628;-84
2022/09/17 12:48:50;;;;;;;3.43;0.43;;;;;;;;;;21241025;27;20393;-83
2022/09/17 12:58:55;;;;;;;1.23;0.43;;;;;;;;;;21206012;28;20673;-84
2022/09/17 13:09:00;;;;;;;1.77;0.30;;;;;;;;;;21221236;27;20783;-85
2022/09/17 13:19:06;;;;;;;0.90;0.40;;;;;;;;;;21233843;28;20276;-83
2022/09/17 13:29:09;;;;;;;0.20;0.20;;;;;;;;;;21241288;27;20223;-83
2022/09/17 13:39:31;;;;;;;1.67;0.40;;;;;;;;;;21228029;27;20207;-81
2022/09/17 13:49:33;;;;;;;0.60;0.40;;;;;;;;;;21252208;27;20272;-83
2022/09/17 13:59:35;;;;;;;0.37;0.30;;;;;;;;;;21220014;27;20215;-83
2022/09/17 14:09:52;;;;;;;0.70;0.30;;;;;;;;;;21239713;27;20215;-83
2022/09/17 14:19:55;;;;;;;0.80;0.40;;;;;;;;;;21253449;27;20215;-85
2022/09/17 14:29:57;;;;;;;0.70;0.50;;;;;;;;;;21251730;27;20606;-85
2022/09/17 14:39:59;;;;;;;1.83;0.50;;;;;;;;;;21240215;27;20267;-84
2022/09/17 14:50:23;;;;;;;0.53;0.23;;;16.50;99.90;;;;;;21301486;27;20223;-83
2022/09/17 15:00:27;;;;;;;0.30;0.20;;;;;;;;;;21231004;27;20215;-85
2022/09/17 15:10:30;;;;;;;0.30;0.20;;;;;;;;;;21237610;27;20222;-85
2022/09/17 15:20:32;;;;;;;0.30;0.30;;;;;;;;;;21199891;27;20207;-85
2022/09/17 15:30:36;;;;;;;0.20;0.20;;;;;;;;;;21214562;27;20588;-85
2022/09/17 15:40:40;;;;;;;0.30;0.30;;;;;;;;;;21195187;27;20219;-84
2022/09/17 15:50:52;;;;;;;0.90;0.60;;;;;;;;;;21226732;27;20282;-85
2022/09/17 16:01:23;;;;;;;1.27;0.40;;;;;;;;;;21210266;27;20263;-84
2022/09/17 16:11:26;;;;;;;1.40;0.53;;;;;;;;;;21213466;27;20227;-84
2022/09/17 16:21:28;;;;;;;0.60;0.37;;;;;;;;;;21211446;27;20284;-83
2022/09/17 16:31:30;;;;;;;0.40;0.30;;;;;;;;;;21230144;27;20762;-85
2022/09/17 16:41:32;;;;;;;0.60;0.20;;;;;;;;;;21225422;28;20701;-84
2022/09/17 16:51:36;;;;;;;0.30;0.20;;;;;;;;;;21274841;28;20222;-83
2022/09/17 17:01:38;;;;;;;0.20;0.20;;;;;;;;;;21209672;27;20643;-84
2022/09/17 17:11:40;;;;;;;0.80;0.63;;;;;;;;;;21196744;28;20279;-84
2022/09/17 17:21:43;;;;;;;1.37;0.60;;;;;;;;;;21245570;27;20633;-84
2022/09/17 17:31:44;;;;;;;1.27;0.40;;;;;;;;;;21334687;27;20286;-85
2022/09/17 17:41:46;;;;;;;0.30;0.30;;;;;;;;;;21267480;27;20215;-84
2022/09/17 17:51:48;;;;;;;0.17;0.17;;;;;;;;;;21247787;27;20626;-85
2022/09/17 18:01:50;;;;;;;0.70;0.50;;;;;;;;;;21218014;27;20709;-85
2022/09/17 18:22:05;;;;;;;0.70;0.30;;;;;;;;;;20905784;28;20584;-71
2022/09/17 18:32:06;;;;;;;0.67;0.30;;;;;;;;;;20906849;28;20628;-72
2022/09/17 18:42:08;;;;;;;0.30;0.30;;;14.80;99.90;;;;;;20902887;28;20689;-72
2022/09/17 18:52:10;;;;;;;0.20;0.20;;;;;;;;;;20900703;28;20218;-72
2022/09/17 19:02:12;;;;;;;1.80;0.30;;;;;;;;;;20891881;28;20276;-72
2022/09/17 19:12:14;;;;;;;0.30;0.30;;;;;;;;;;20884864;28;20198;-73
2022/09/17 19:22:16;;;;;;;0.30;0.30;;;;;;;;;;20882713;28;20222;-72
2022/09/17 19:32:18;;;;;;;0.23;0.23;;;;;;;;;;20833157;28;20198;-72
2022/09/17 19:42:20;;;;;;;1.97;0.70;;;;;;;;;;20828718;28;20198;-72
2022/09/17 19:52:21;;;;;;;0.83;0.40;;;;;;;;;;20836353;28;20218;-72
2022/09/17 20:02:23;;;;;;;1.40;0.30;;;;;;;;;;20833621;28;20206;-72
2022/09/17 20:12:25;;;;;;;0.90;0.50;;;;;;;;;;20824007;28;20268;-72
2022/09/17 20:22:27;;;;;;;1.03;0.30;;;;;;;;;;20825948;28;20207;-71
2022/09/17 20:32:29;;;;;;;0.70;0.30;;;;;;;;;;20824149;28;20219;-72
2022/09/17 20:42:31;;;;;;;0.30;0.30;;;;;;;;;;20837316;28;20268;-71
2022/09/17 20:52:32;;;;;;;2.67;0.60;;;;;;;;;;20821334;28;20231;-71
2022/09/17 21:02:34;;;;;;;0.93;0.63;;;;;;;;;;20820694;28;20565;-72
2022/09/17 21:12:36;;;;;;;0.60;0.40;;;;;;;;;;20820174;28;20264;-72
2022/09/17 21:22:37;;;;;;;1.73;0.50;;;;;;;;;;20819571;28;20198;-73
2022/09/17 21:32:40;;;;;;;0.40;0.30;;;;;;;;;;20818244;28;20234;-71
2022/09/17 21:42:42;;;;;;;0.80;0.33;;;;;;;;;;20826367;28;20273;-71
2022/09/17 21:52:43;;;;;;;2.20;0.50;;;;;;;;;;20824176;28;20348;-71
2022/09/17 22:02:45;;;;;;;0.27;0.23;;;;;;;;;;20820044;28;20214;-71
2022/09/17 22:12:48;;;;;;;1.47;0.50;;;;;;;;;;20820157;28;20253;-70
2022/09/17 22:22:49;;;;;;;1.43;0.50;;;;;;;;;;20817525;28;20771;-71
2022/09/17 22:32:52;;;;;;;2.20;0.73;;;;;;;;;;20816687;28;20222;-70
2022/09/17 22:42:54;;;;;;;1.67;0.47;;;;;;;;;;20817733;28;20190;-71
2022/09/17 22:52:56;;;;;;;0.67;0.30;;;;;;;;;;20800565;28;20276;-71
2022/09/17 23:02:58;;;;;;;2.17;0.67;;;;;;;;;;20811967;28;20215;-71
2022/09/17 23:12:59;;;;;;;0.73;0.30;;;;;;;;;;20853652;22;20222;-75
2022/09/17 23:23:01;;;;;;;0.83;0.40;;;;;;;;;;20854011;28;20206;-74
2022/09/17 23:33:03;;;;;;;2.97;0.40;;;;;;;;;;20901904;28;20275;-75
2022/09/17 23:43:05;;;;;;;1.33;0.40;;;;;;;;;;20900577;28;20222;-75
2022/09/17 23:53:07;;;;;;;0.70;0.27;;;;;;;;;;20911219;28;20558;-75
